createdAt,value
2022-08-28T00:01:19.308Z,6.38
2022-08-28T00:06:23.408Z,7.20
2022-08-28T00:11:26.151Z,7.55
2022-08-28T00:16:30.538Z,7.35
2022-08-28T00:21:37.237Z,9.07
2022-08-28T00:26:57.639Z,9.38
2022-08-28T00:32:00.708Z,9.60
2022-08-28T00:37:04.784Z,11.02
2022-08-28T00:42:07.753Z,12.18
2022-08-28T00:47:10.856Z,13.55
2022-08-28T00:52:16.106Z,14.63
2022-08-28T00:57:22.348Z,15.77
2022-08-28T01:02:33.010Z,14.48
2022-08-28T01:07:37.347Z,13.02
2022-08-28T01:12:40.132Z,14.07
2022-08-28T01:17:47.779Z,14.23
2022-08-28T01:22:59.170Z,15.00
2022-08-28T01:28:05.066Z,13.20
2022-08-28T01:33:08.170Z,13.68
2022-08-28T01:38:11.296Z,11.90
2022-08-28T01:43:17.598Z,12.50
2022-08-28T01:48:22.367Z,12.23
2022-08-28T01:53:32.488Z,12.15
2022-08-28T01:58:38.347Z,12.40
2022-08-28T02:03:43.086Z,12.15
2022-08-28T02:08:46.792Z,13.63
2022-08-28T02:13:52.039Z,14.35
2022-08-28T02:18:57.261Z,15.52
2022-08-28T02:23:59.958Z,15.48
2022-08-28T02:29:04.841Z,17.88
2022-08-28T02:34:28.196Z,18.75
2022-08-28T02:39:49.787Z,20.00
2022-08-28T02:44:55.089Z,20.38
2022-08-28T02:49:58.388Z,19.77
2022-08-28T02:55:09.155Z,20.85
2022-08-28T03:00:24.566Z,21.17
2022-08-28T03:05:27.729Z,21.50
2022-08-28T03:10:34.114Z,22.88
2022-08-28T03:15:42.265Z,24.30
2022-08-28T03:20:52.809Z,22.25
2022-08-28T03:26:00.480Z,22.83
2022-08-28T03:31:05.935Z,24.30
2022-08-28T03:36:09.167Z,24.20
2022-08-28T03:41:12.356Z,20.13
2022-08-28T03:46:19.581Z,20.48
2022-08-28T03:51:28.004Z,20.60
2022-08-28T03:56:32.802Z,18.35
2022-08-28T04:01:38.232Z,15.48
2022-08-28T04:06:41.083Z,14.68
2022-08-28T04:11:44.495Z,15.00
2022-08-28T04:16:49.271Z,14.25
2022-08-28T04:21:51.982Z,11.43
2022-08-28T04:26:54.734Z,12.35
2022-08-28T04:31:59.197Z,12.73
2022-08-28T04:37:02.017Z,14.30
2022-08-28T04:42:05.097Z,16.30
2022-08-28T04:47:09.185Z,14.50
2022-08-28T04:52:12.019Z,16.20
2022-08-28T04:57:14.722Z,14.63
2022-08-28T05:02:18.954Z,13.55
2022-08-28T05:07:21.740Z,13.48
2022-08-28T05:12:24.883Z,13.13
2022-08-28T05:17:32.162Z,10.00
2022-08-28T05:22:35.021Z,9.85
2022-08-28T05:27:41.068Z,8.85
2022-08-28T05:32:47.342Z,7.88
2022-08-28T05:37:52.607Z,7.25
2022-08-28T05:42:56.001Z,7.85
2022-08-28T05:48:00.758Z,6.47
2022-08-28T05:53:06.544Z,6.70
2022-08-28T06:03:55.268Z,4.97
2022-08-28T06:09:09.093Z,4.93
2022-08-28T06:14:22.319Z,4.45
2022-08-28T06:19:37.243Z,5.13
2022-08-28T06:24:56.877Z,4.95
2022-08-28T06:30:03.914Z,5.28
2022-08-28T06:40:27.367Z,4.63
2022-08-28T06:45:32.618Z,4.50
2022-08-28T06:50:57.655Z,4.40
2022-08-28T07:01:24.924Z,3.92
2022-08-28T07:06:28.441Z,3.50
2022-08-28T07:11:35.913Z,3.60
2022-08-28T07:16:40.608Z,3.17
2022-08-28T07:21:45.048Z,3.30
2022-08-28T07:26:48.689Z,3.22
2022-08-28T07:31:55.926Z,3.00
2022-08-28T07:37:04.101Z,3.92
2022-08-28T07:42:07.089Z,3.33
2022-08-28T07:47:11.788Z,2.88
2022-08-28T07:52:14.513Z,3.05
2022-08-28T07:57:17.780Z,3.38
2022-08-28T08:02:22.120Z,3.72
2022-08-28T08:07:24.824Z,3.13
2022-08-28T08:12:27.859Z,2.90
2022-08-28T08:17:33.935Z,3.15
2022-08-28T08:22:37.682Z,3.35
2022-08-28T08:27:43.082Z,2.90
2022-08-28T08:32:47.244Z,3.10
2022-08-28T08:37:49.948Z,3.40
2022-08-28T08:42:57.064Z,3.15
2022-08-28T08:48:02.191Z,3.22
2022-08-28T08:53:17.055Z,3.40
2022-08-28T08:58:27.711Z,3.25
2022-08-28T09:03:48.424Z,3.00
2022-08-28T09:08:58.098Z,2.88
2022-08-28T09:14:06.484Z,3.50
2022-08-28T09:19:12.911Z,2.83
2022-08-28T09:24:21.643Z,3.30
2022-08-28T09:29:31.998Z,3.60
2022-08-28T09:34:38.975Z,3.85
2022-08-28T09:39:44.588Z,2.75
2022-08-28T09:44:56.843Z,3.40
2022-08-28T09:50:25.636Z,3.10
2022-08-28T09:55:37.119Z,3.10
2022-08-28T10:00:44.913Z,3.20
2022-08-28T10:06:04.032Z,3.35
2022-08-28T10:11:20.234Z,3.25
2022-08-28T10:16:35.859Z,3.20
2022-08-28T10:21:45.902Z,3.03
2022-08-28T10:26:52.568Z,3.55
2022-08-28T10:32:18.524Z,2.85
2022-08-28T10:37:34.603Z,2.60
2022-08-28T10:42:40.367Z,2.47
2022-08-28T10:47:47.935Z,2.75
2022-08-28T10:52:57.471Z,3.10
2022-08-28T10:58:04.176Z,2.88
2022-08-28T11:03:32.866Z,2.90
2022-08-28T11:08:39.542Z,2.67
2022-08-28T11:13:56.888Z,2.92
2022-08-28T11:19:36.644Z,2.60
2022-08-28T11:24:50.467Z,2.90
2022-08-28T11:30:02.515Z,2.80
2022-08-28T11:35:23.622Z,2.97
2022-08-28T11:40:53.249Z,2.67
2022-08-28T11:46:13.372Z,2.80
2022-08-28T11:51:44.063Z,3.03
2022-08-28T11:56:54.621Z,2.90
2022-08-28T12:01:58.200Z,2.53
2022-08-28T12:07:20.858Z,2.60
2022-08-28T12:12:54.341Z,3.00
2022-08-28T12:17:58.644Z,3.08
2022-08-28T12:23:04.089Z,2.50
2022-08-28T12:28:20.483Z,2.75
2022-08-28T12:33:31.938Z,2.45
2022-08-28T12:38:35.396Z,2.97
2022-08-28T12:43:46.676Z,2.35
2022-08-28T12:48:52.275Z,3.00
2022-08-28T12:53:57.794Z,2.72
2022-08-28T12:59:27.208Z,2.55
2022-08-28T13:04:34.549Z,3.00
2022-08-28T13:09:37.639Z,2.65
2022-08-28T13:14:50.840Z,2.90
2022-08-28T13:20:03.343Z,2.50
2022-08-28T13:25:07.178Z,2.70
2022-08-28T13:30:24.293Z,2.70
2022-08-28T13:35:41.193Z,3.20
2022-08-28T13:41:04.181Z,2.90
2022-08-28T13:46:08.413Z,2.42
2022-08-28T13:51:19.012Z,2.42
2022-08-28T13:56:23.681Z,2.75
2022-08-28T14:01:48.142Z,2.42
2022-08-28T14:06:50.943Z,3.28
2022-08-28T14:11:53.890Z,2.67
2022-08-28T14:16:57.933Z,2.50
2022-08-28T14:22:00.725Z,2.50
2022-08-28T14:27:03.570Z,2.30
2022-08-28T14:32:07.771Z,2.50
2022-08-28T14:37:10.660Z,2.67
2022-08-28T14:42:13.444Z,3.83
2022-08-28T14:47:17.521Z,2.67
2022-08-28T14:52:20.339Z,2.53
2022-08-28T14:57:23.009Z,2.80
2022-08-28T15:02:27.182Z,2.92
2022-08-28T15:07:30.469Z,3.10
2022-08-28T15:12:33.168Z,2.88
2022-08-28T15:17:37.158Z,2.33
2022-08-28T15:22:40.036Z,2.50
2022-08-28T15:27:42.907Z,2.75
2022-08-28T15:32:49.941Z,2.60
2022-08-28T15:37:53.592Z,2.83
2022-08-28T15:42:57.029Z,2.17
2022-08-28T15:48:01.091Z,2.65
2022-08-28T15:53:04.136Z,2.72
2022-08-28T15:58:14.317Z,2.38
2022-08-28T16:03:18.530Z,2.58
2022-08-28T16:08:21.549Z,2.10
2022-08-28T16:13:25.118Z,2.63
2022-08-28T16:18:30.631Z,2.38
2022-08-28T16:23:34.373Z,2.75
2022-08-28T16:28:41.743Z,2.40
2022-08-28T16:33:46.405Z,2.40
2022-08-28T16:38:59.633Z,2.15
2022-08-28T16:44:07.091Z,2.50
2022-08-28T16:49:13.960Z,2.25
2022-08-28T16:54:18.656Z,2.33
2022-08-28T16:59:24.767Z,2.28
2022-08-28T17:04:29.679Z,2.22
2022-08-28T17:09:33.642Z,2.25
2022-08-28T17:14:37.197Z,2.28
2022-08-28T17:19:42.399Z,2.60
2022-08-28T17:24:45.432Z,2.30
2022-08-28T17:29:48.993Z,2.30
2022-08-28T17:34:53.267Z,2.70
2022-08-28T17:39:56.006Z,2.67
2022-08-28T17:44:58.772Z,2.80
2022-08-28T17:50:03.322Z,2.53
2022-08-28T17:55:07.120Z,2.33
2022-08-28T18:00:14.118Z,2.40
2022-08-28T18:05:18.532Z,2.33
2022-08-28T18:10:21.999Z,2.50
2022-08-28T18:15:24.761Z,2.40
2022-08-28T18:20:29.142Z,2.88
2022-08-28T18:25:50.287Z,3.08
2022-08-28T18:30:54.669Z,2.70
2022-08-28T18:35:59.306Z,2.80
2022-08-28T18:41:02.553Z,3.40
2022-08-28T18:46:07.766Z,2.70
2022-08-28T18:51:21.327Z,2.88
2022-08-28T18:56:31.977Z,3.00
2022-08-28T19:01:38.455Z,3.03
2022-08-28T19:06:44.435Z,3.15
2022-08-28T19:12:02.745Z,3.60
2022-08-28T19:17:36.929Z,3.50
2022-08-28T19:23:27.002Z,3.60
2022-08-28T19:35:24.723Z,3.88
2022-08-28T19:41:00.036Z,3.20
2022-08-28T19:52:29.205Z,3.92
2022-08-28T19:57:41.335Z,4.63
2022-08-28T20:02:56.811Z,4.88
2022-08-28T20:08:48.987Z,4.18
2022-08-28T20:14:49.764Z,4.63
2022-08-28T20:26:03.561Z,4.75
2022-08-28T20:31:37.351Z,5.45
2022-08-28T20:36:41.021Z,4.80
2022-08-28T20:41:46.139Z,5.07
2022-08-28T20:46:51.533Z,4.65
2022-08-28T20:52:01.374Z,10.95
2022-08-28T20:57:07.756Z,7.55
2022-08-28T21:02:15.174Z,4.95
2022-08-28T21:07:19.619Z,5.15
2022-08-28T21:12:22.457Z,4.25
2022-08-28T21:17:30.774Z,4.75
2022-08-28T21:22:35.326Z,4.30
2022-08-28T21:27:39.632Z,4.50
2022-08-28T21:32:43.998Z,3.78
2022-08-28T21:37:48.769Z,3.97
2022-08-28T21:42:51.443Z,4.82
2022-08-28T21:47:55.460Z,4.35
2022-08-28T21:52:58.153Z,5.03
2022-08-28T21:58:00.994Z,4.00
2022-08-28T22:03:05.266Z,5.28
2022-08-28T22:08:07.971Z,5.13
2022-08-28T22:13:11.814Z,4.75
2022-08-28T22:18:16.919Z,4.25
2022-08-28T22:23:19.608Z,4.40
2022-08-28T22:28:22.767Z,4.32
2022-08-28T22:33:27.010Z,4.07
2022-08-28T22:38:30.363Z,4.03
2022-08-28T22:43:33.428Z,4.90
